sensor_id;sensor_type;location;lat;lon;timestamp;P1;durP1;ratioP1;P2;durP2;ratioP2
58553;SDS011;48119;53.218;6.576;2024-01-27T00:00:17;19.85;;;6.15;;
58553;SDS011;48119;53.218;6.576;2024-01-27T00:02:43;27.30;;;6.72;;
58553;SDS011;48119;53.218;6.576;2024-01-27T00:05:09;19.80;;;5.53;;
58553;SDS011;48119;53.218;6.576;2024-01-27T00:07:34;20.67;;;6.15;;
58553;SDS011;48119;53.218;6.576;2024-01-27T00:10:01;23.33;;;6.13;;
58553;SDS011;48119;53.218;6.576;2024-01-27T00:12:27;26.13;;;5.55;;
58553;SDS011;48119;53.218;6.576;2024-01-27T00:14:53;22.42;;;6.20;;
58553;SDS011;48119;53.218;6.576;2024-01-27T00:17:19;18.40;;;5.18;;
58553;SDS011;48119;53.218;6.576;2024-01-27T00:19:49;34.13;;;8.18;;
58553;SDS011;48119;53.218;6.576;2024-01-27T00:22:15;21.90;;;7.13;;
58553;SDS011;48119;53.218;6.576;2024-01-27T00:24:42;28.08;;;7.53;;
58553;SDS011;48119;53.218;6.576;2024-01-27T00:27:08;25.63;;;8.20;;
58553;SDS011;48119;53.218;6.576;2024-01-27T00:29:34;26.98;;;6.93;;
58553;SDS011;48119;53.218;6.576;2024-01-27T00:32:00;27.90;;;6.15;;
58553;SDS011;48119;53.218;6.576;2024-01-27T00:34:25;24.30;;;5.47;;
58553;SDS011;48119;53.218;6.576;2024-01-27T00:36:51;20.75;;;5.63;;
58553;SDS011;48119;53.218;6.576;2024-01-27T00:39:17;22.63;;;6.10;;
58553;SDS011;48119;53.218;6.576;2024-01-27T00:41:44;22.08;;;5.90;;
58553;SDS011;48119;53.218;6.576;2024-01-27T00:44:10;13.07;;;3.65;;
58553;SDS011;48119;53.218;6.576;2024-01-27T00:46:36;19.48;;;4.63;;
58553;SDS011;48119;53.218;6.576;2024-01-27T00:49:02;21.88;;;4.93;;
58553;SDS011;48119;53.218;6.576;2024-01-27T00:51:28;18.45;;;4.60;;
58553;SDS011;48119;53.218;6.576;2024-01-27T00:53:54;20.88;;;4.85;;
58553;SDS011;48119;53.218;6.576;2024-01-27T00:56:20;23.33;;;6.10;;
58553;SDS011;48119;53.218;6.576;2024-01-27T00:58:46;28.80;;;8.07;;
58553;SDS011;48119;53.218;6.576;2024-01-27T01:01:12;28.75;;;6.45;;
58553;SDS011;48119;53.218;6.576;2024-01-27T01:03:38;23.30;;;6.35;;
58553;SDS011;48119;53.218;6.576;2024-01-27T01:06:03;25.10;;;5.97;;
58553;SDS011;48119;53.218;6.576;2024-01-27T01:08:30;24.95;;;5.95;;
58553;SDS011;48119;53.218;6.576;2024-01-27T01:10:56;21.38;;;4.93;;
58553;SDS011;48119;53.218;6.576;2024-01-27T01:13:22;20.52;;;5.53;;
58553;SDS011;48119;53.218;6.576;2024-01-27T01:15:48;19.83;;;4.90;;
58553;SDS011;48119;53.218;6.576;2024-01-27T01:18:14;18.92;;;4.88;;
58553;SDS011;48119;53.218;6.576;2024-01-27T01:20:39;19.10;;;4.95;;
58553;SDS011;48119;53.218;6.576;2024-01-27T01:23:05;28.65;;;8.15;;
58553;SDS011;48119;53.218;6.576;2024-01-27T01:25:31;22.70;;;6.07;;
58553;SDS011;48119;53.218;6.576;2024-01-27T01:27:57;27.05;;;7.65;;
58553;SDS011;48119;53.218;6.576;2024-01-27T01:30:23;19.40;;;6.43;;
58553;SDS011;48119;53.218;6.576;2024-01-27T01:32:49;18.13;;;4.35;;
58553;SDS011;48119;53.218;6.576;2024-01-27T01:35:15;22.83;;;5.70;;
58553;SDS011;48119;53.218;6.576;2024-01-27T01:37:41;25.38;;;5.90;;
58553;SDS011;48119;53.218;6.576;2024-01-27T01:40:07;19.50;;;5.00;;
58553;SDS011;48119;53.218;6.576;2024-01-27T01:42:33;18.77;;;4.57;;
58553;SDS011;48119;53.218;6.576;2024-01-27T01:44:59;22.15;;;6.20;;
58553;SDS011;48119;53.218;6.576;2024-01-27T01:47:25;22.30;;;6.28;;
58553;SDS011;48119;53.218;6.576;2024-01-27T01:49:50;22.27;;;6.20;;
58553;SDS011;48119;53.218;6.576;2024-01-27T01:52:18;26.48;;;6.18;;
58553;SDS011;48119;53.218;6.576;2024-01-27T01:54:47;17.67;;;5.47;;
58553;SDS011;48119;53.218;6.576;2024-01-27T01:57:14;20.27;;;5.72;;
58553;SDS011;48119;53.218;6.576;2024-01-27T01:59:40;19.90;;;5.20;;
58553;SDS011;48119;53.218;6.576;2024-01-27T02:02:07;19.30;;;4.80;;
58553;SDS011;48119;53.218;6.576;2024-01-27T02:04:43;15.80;;;4.88;;
58553;SDS011;48119;53.218;6.576;2024-01-27T02:07:11;12.02;;;4.20;;
58553;SDS011;48119;53.218;6.576;2024-01-27T02:09:37;12.68;;;3.97;;
58553;SDS011;48119;53.218;6.576;2024-01-27T02:12:03;19.45;;;4.90;;
58553;SDS011;48119;53.218;6.576;2024-01-27T02:14:29;15.65;;;4.10;;
58553;SDS011;48119;53.218;6.576;2024-01-27T02:16:55;14.75;;;4.20;;
58553;SDS011;48119;53.218;6.576;2024-01-27T02:19:21;11.75;;;3.42;;
58553;SDS011;48119;53.218;6.576;2024-01-27T02:21:48;13.93;;;3.58;;
58553;SDS011;48119;53.218;6.576;2024-01-27T02:24:13;13.90;;;3.65;;
58553;SDS011;48119;53.218;6.576;2024-01-27T02:26:39;24.27;;;4.95;;
58553;SDS011;48119;53.218;6.576;2024-01-27T02:29:05;21.77;;;4.82;;
58553;SDS011;48119;53.218;6.576;2024-01-27T02:31:30;19.60;;;5.20;;
58553;SDS011;48119;53.218;6.576;2024-01-27T02:33:56;21.27;;;4.30;;
58553;SDS011;48119;53.218;6.576;2024-01-27T02:36:22;18.15;;;5.68;;
58553;SDS011;48119;53.218;6.576;2024-01-27T02:38:48;24.15;;;5.85;;
58553;SDS011;48119;53.218;6.576;2024-01-27T02:41:14;25.67;;;6.85;;
58553;SDS011;48119;53.218;6.576;2024-01-27T02:43:40;20.23;;;6.05;;
58553;SDS011;48119;53.218;6.576;2024-01-27T02:46:07;19.13;;;6.00;;
58553;SDS011;48119;53.218;6.576;2024-01-27T02:48:35;25.05;;;6.20;;
58553;SDS011;48119;53.218;6.576;2024-01-27T02:51:03;14.85;;;4.30;;
58553;SDS011;48119;53.218;6.576;2024-01-27T02:53:29;17.20;;;5.40;;
58553;SDS011;48119;53.218;6.576;2024-01-27T02:55:55;14.60;;;4.07;;
58553;SDS011;48119;53.218;6.576;2024-01-27T02:58:21;16.48;;;3.75;;
58553;SDS011;48119;53.218;6.576;2024-01-27T03:00:47;12.32;;;4.30;;
58553;SDS011;48119;53.218;6.576;2024-01-27T03:03:13;19.05;;;3.80;;
58553;SDS011;48119;53.218;6.576;2024-01-27T03:05:40;17.00;;;4.85;;
58553;SDS011;48119;53.218;6.576;2024-01-27T03:08:06;14.27;;;4.88;;
58553;SDS011;48119;53.218;6.576;2024-01-27T03:10:32;19.23;;;4.78;;
58553;SDS011;48119;53.218;6.576;2024-01-27T03:12:58;21.52;;;6.43;;
58553;SDS011;48119;53.218;6.576;2024-01-27T03:15:23;13.73;;;5.60;;
58553;SDS011;48119;53.218;6.576;2024-01-27T03:17:49;27.33;;;8.48;;
58553;SDS011;48119;53.218;6.576;2024-01-27T03:20:15;22.17;;;6.65;;
58553;SDS011;48119;53.218;6.576;2024-01-27T03:22:41;20.02;;;4.95;;
58553;SDS011;48119;53.218;6.576;2024-01-27T03:25:07;23.50;;;6.25;;
58553;SDS011;48119;53.218;6.576;2024-01-27T03:27:34;23.48;;;5.05;;
58553;SDS011;48119;53.218;6.576;2024-01-27T03:30:00;24.67;;;5.93;;
58553;SDS011;48119;53.218;6.576;2024-01-27T03:32:27;21.08;;;6.25;;
58553;SDS011;48119;53.218;6.576;2024-01-27T03:34:53;15.40;;;4.55;;
58553;SDS011;48119;53.218;6.576;2024-01-27T03:37:21;11.77;;;4.65;;
58553;SDS011;48119;53.218;6.576;2024-01-27T03:39:47;16.60;;;3.95;;
58553;SDS011;48119;53.218;6.576;2024-01-27T03:42:13;18.30;;;6.15;;
58553;SDS011;48119;53.218;6.576;2024-01-27T03:44:39;24.48;;;5.38;;
58553;SDS011;48119;53.218;6.576;2024-01-27T03:47:05;21.35;;;5.55;;
58553;SDS011;48119;53.218;6.576;2024-01-27T03:49:30;19.50;;;5.38;;
58553;SDS011;48119;53.218;6.576;2024-01-27T03:51:56;25.08;;;6.60;;
58553;SDS011;48119;53.218;6.576;2024-01-27T03:54:22;17.95;;;5.05;;
58553;SDS011;48119;53.218;6.576;2024-01-27T03:56:47;15.00;;;5.40;;
58553;SDS011;48119;53.218;6.576;2024-01-27T03:59:13;23.70;;;5.00;;
58553;SDS011;48119;53.218;6.576;2024-01-27T04:01:39;19.38;;;4.43;;
58553;SDS011;48119;53.218;6.576;2024-01-27T04:04:04;18.95;;;4.38;;
58553;SDS011;48119;53.218;6.576;2024-01-27T04:06:35;19.30;;;5.15;;
58553;SDS011;48119;53.218;6.576;2024-01-27T04:09:02;18.80;;;4.60;;
58553;SDS011;48119;53.218;6.576;2024-01-27T04:11:28;17.77;;;5.38;;
58553;SDS011;48119;53.218;6.576;2024-01-27T04:13:54;17.83;;;5.20;;
58553;SDS011;48119;53.218;6.576;2024-01-27T04:16:19;16.60;;;4.72;;
58553;SDS011;48119;53.218;6.576;2024-01-27T04:18:45;16.92;;;4.68;;
58553;SDS011;48119;53.218;6.576;2024-01-27T04:21:11;12.85;;;4.03;;
58553;SDS011;48119;53.218;6.576;2024-01-27T04:23:37;16.02;;;5.55;;
58553;SDS011;48119;53.218;6.576;2024-01-27T04:26:03;18.27;;;4.63;;
58553;SDS011;48119;53.218;6.576;2024-01-27T04:28:31;17.80;;;4.68;;
58553;SDS011;48119;53.218;6.576;2024-01-27T04:30:57;13.07;;;4.00;;
58553;SDS011;48119;53.218;6.576;2024-01-27T04:33:23;11.25;;;3.47;;
58553;SDS011;48119;53.218;6.576;2024-01-27T04:35:49;12.10;;;3.40;;
58553;SDS011;48119;53.218;6.576;2024-01-27T04:38:15;14.15;;;4.35;;
58553;SDS011;48119;53.218;6.576;2024-01-27T04:40:40;14.85;;;3.47;;
58553;SDS011;48119;53.218;6.576;2024-01-27T04:43:06;11.48;;;3.00;;
58553;SDS011;48119;53.218;6.576;2024-01-27T04:45:32;15.85;;;3.60;;
58553;SDS011;48119;53.218;6.576;2024-01-27T04:47:58;15.45;;;3.67;;
58553;SDS011;48119;53.218;6.576;2024-01-27T04:50:26;12.48;;;3.60;;
58553;SDS011;48119;53.218;6.576;2024-01-27T04:52:52;19.15;;;4.45;;
58553;SDS011;48119;53.218;6.576;2024-01-27T04:55:18;19.15;;;4.38;;
58553;SDS011;48119;53.218;6.576;2024-01-27T04:57:43;15.35;;;3.92;;
58553;SDS011;48119;53.218;6.576;2024-01-27T05:00:09;18.42;;;4.45;;
58553;SDS011;48119;53.218;6.576;2024-01-27T05:02:39;12.98;;;3.00;;
58553;SDS011;48119;53.218;6.576;2024-01-27T05:05:08;25.05;;;3.65;;
58553;SDS011;48119;53.218;6.576;2024-01-27T05:07:34;18.95;;;4.13;;
58553;SDS011;48119;53.218;6.576;2024-01-27T05:10:00;19.23;;;3.65;;
58553;SDS011;48119;53.218;6.576;2024-01-27T05:12:26;18.83;;;4.60;;
58553;SDS011;48119;53.218;6.576;2024-01-27T05:14:51;13.13;;;4.18;;
58553;SDS011;48119;53.218;6.576;2024-01-27T05:17:17;16.17;;;3.85;;
58553;SDS011;48119;53.218;6.576;2024-01-27T05:19:43;11.50;;;3.75;;
58553;SDS011;48119;53.218;6.576;2024-01-27T05:22:09;12.60;;;3.88;;
58553;SDS011;48119;53.218;6.576;2024-01-27T05:24:35;15.52;;;3.92;;
58553;SDS011;48119;53.218;6.576;2024-01-27T05:27:00;16.15;;;3.75;;
58553;SDS011;48119;53.218;6.576;2024-01-27T05:29:27;15.80;;;3.45;;
58553;SDS011;48119;53.218;6.576;2024-01-27T05:31:53;16.27;;;3.30;;
58553;SDS011;48119;53.218;6.576;2024-01-27T05:34:19;12.70;;;4.32;;
58553;SDS011;48119;53.218;6.576;2024-01-27T05:36:46;19.55;;;5.03;;
58553;SDS011;48119;53.218;6.576;2024-01-27T05:39:13;18.60;;;3.97;;
58553;SDS011;48119;53.218;6.576;2024-01-27T05:41:39;14.20;;;3.72;;
58553;SDS011;48119;53.218;6.576;2024-01-27T05:44:05;17.65;;;4.05;;
58553;SDS011;48119;53.218;6.576;2024-01-27T05:46:31;20.52;;;3.60;;
58553;SDS011;48119;53.218;6.576;2024-01-27T05:48:56;24.80;;;4.80;;
58553;SDS011;48119;53.218;6.576;2024-01-27T05:51:26;14.93;;;3.75;;
58553;SDS011;48119;53.218;6.576;2024-01-27T05:53:52;11.45;;;4.75;;
58553;SDS011;48119;53.218;6.576;2024-01-27T05:56:18;20.60;;;4.03;;
58553;SDS011;48119;53.218;6.576;2024-01-27T05:58:47;18.63;;;3.38;;
58553;SDS011;48119;53.218;6.576;2024-01-27T06:01:13;15.32;;;3.70;;
58553;SDS011;48119;53.218;6.576;2024-01-27T06:03:43;16.25;;;3.35;;
58553;SDS011;48119;53.218;6.576;2024-01-27T06:06:09;12.57;;;3.00;;
58553;SDS011;48119;53.218;6.576;2024-01-27T06:08:35;12.80;;;4.53;;
58553;SDS011;48119;53.218;6.576;2024-01-27T06:11:01;13.27;;;3.47;;
58553;SDS011;48119;53.218;6.576;2024-01-27T06:13:28;15.10;;;3.25;;
58553;SDS011;48119;53.218;6.576;2024-01-27T06:15:54;17.63;;;3.83;;
58553;SDS011;48119;53.218;6.576;2024-01-27T06:18:20;18.73;;;3.55;;
58553;SDS011;48119;53.218;6.576;2024-01-27T06:20:46;18.75;;;3.67;;
58553;SDS011;48119;53.218;6.576;2024-01-27T06:23:11;15.35;;;3.78;;
58553;SDS011;48119;53.218;6.576;2024-01-27T06:25:37;15.73;;;3.97;;
58553;SDS011;48119;53.218;6.576;2024-01-27T06:28:03;21.45;;;4.13;;
58553;SDS011;48119;53.218;6.576;2024-01-27T06:30:29;16.17;;;4.95;;
58553;SDS011;48119;53.218;6.576;2024-01-27T06:32:55;10.57;;;3.15;;
58553;SDS011;48119;53.218;6.576;2024-01-27T06:35:20;14.93;;;4.03;;
58553;SDS011;48119;53.218;6.576;2024-01-27T06:37:46;15.95;;;3.97;;
58553;SDS011;48119;53.218;6.576;2024-01-27T06:40:12;17.83;;;4.20;;
58553;SDS011;48119;53.218;6.576;2024-01-27T06:42:38;21.60;;;6.07;;
58553;SDS011;48119;53.218;6.576;2024-01-27T06:45:04;13.85;;;4.18;;
58553;SDS011;48119;53.218;6.576;2024-01-27T06:47:30;10.93;;;3.50;;
58553;SDS011;48119;53.218;6.576;2024-01-27T06:49:56;24.55;;;4.57;;
58553;SDS011;48119;53.218;6.576;2024-01-27T06:52:22;14.18;;;3.88;;
58553;SDS011;48119;53.218;6.576;2024-01-27T06:54:48;18.45;;;4.65;;
58553;SDS011;48119;53.218;6.576;2024-01-27T06:57:19;15.23;;;3.80;;
58553;SDS011;48119;53.218;6.576;2024-01-27T06:59:47;16.55;;;4.00;;
58553;SDS011;48119;53.218;6.576;2024-01-27T07:02:18;19.27;;;4.18;;
58553;SDS011;48119;53.218;6.576;2024-01-27T07:04:49;14.52;;;3.13;;
58553;SDS011;48119;53.218;6.576;2024-01-27T07:07:15;13.15;;;3.53;;
58553;SDS011;48119;53.218;6.576;2024-01-27T07:09:41;13.32;;;3.15;;
58553;SDS011;48119;53.218;6.576;2024-01-27T07:12:07;12.48;;;3.08;;
58553;SDS011;48119;53.218;6.576;2024-01-27T07:14:34;16.30;;;3.83;;
58553;SDS011;48119;53.218;6.576;2024-01-27T07:17:00;13.68;;;3.50;;
58553;SDS011;48119;53.218;6.576;2024-01-27T07:19:26;9.07;;;2.90;;
58553;SDS011;48119;53.218;6.576;2024-01-27T07:21:53;16.48;;;3.83;;
58553;SDS011;48119;53.218;6.576;2024-01-27T07:24:19;11.20;;;3.28;;
58553;SDS011;48119;53.218;6.576;2024-01-27T07:26:45;14.82;;;4.18;;
58553;SDS011;48119;53.218;6.576;2024-01-27T07:29:10;17.42;;;3.67;;
58553;SDS011;48119;53.218;6.576;2024-01-27T07:31:36;17.02;;;4.57;;
58553;SDS011;48119;53.218;6.576;2024-01-27T07:34:02;14.38;;;3.67;;
58553;SDS011;48119;53.218;6.576;2024-01-27T07:36:31;15.23;;;3.92;;
58553;SDS011;48119;53.218;6.576;2024-01-27T07:38:58;12.30;;;4.18;;
58553;SDS011;48119;53.218;6.576;2024-01-27T07:41:24;19.25;;;4.10;;
58553;SDS011;48119;53.218;6.576;2024-01-27T07:43:50;17.92;;;3.90;;
58553;SDS011;48119;53.218;6.576;2024-01-27T07:46:16;11.93;;;3.83;;
58553;SDS011;48119;53.218;6.576;2024-01-27T07:48:45;16.20;;;4.20;;
58553;SDS011;48119;53.218;6.576;2024-01-27T07:51:10;24.30;;;4.20;;
58553;SDS011;48119;53.218;6.576;2024-01-27T07:53:36;13.50;;;4.20;;
58553;SDS011;48119;53.218;6.576;2024-01-27T07:56:02;18.10;;;5.05;;
58553;SDS011;48119;53.218;6.576;2024-01-27T07:58:28;15.02;;;4.07;;
58553;SDS011;48119;53.218;6.576;2024-01-27T08:00:54;12.27;;;3.75;;
58553;SDS011;48119;53.218;6.576;2024-01-27T08:03:19;18.30;;;3.42;;
58553;SDS011;48119;53.218;6.576;2024-01-27T08:05:45;11.38;;;3.60;;
58553;SDS011;48119;53.218;6.576;2024-01-27T08:08:11;20.35;;;3.90;;
58553;SDS011;48119;53.218;6.576;2024-01-27T08:10:37;11.70;;;3.75;;
58553;SDS011;48119;53.218;6.576;2024-01-27T08:13:04;16.08;;;3.47;;
58553;SDS011;48119;53.218;6.576;2024-01-27T08:15:30;16.00;;;4.45;;
58553;SDS011;48119;53.218;6.576;2024-01-27T08:17:55;20.90;;;4.78;;
58553;SDS011;48119;53.218;6.576;2024-01-27T08:20:21;14.45;;;3.60;;
58553;SDS011;48119;53.218;6.576;2024-01-27T08:22:47;12.25;;;4.35;;
58553;SDS011;48119;53.218;6.576;2024-01-27T08:25:16;19.17;;;5.15;;
58553;SDS011;48119;53.218;6.576;2024-01-27T08:27:43;15.35;;;3.53;;
58553;SDS011;48119;53.218;6.576;2024-01-27T08:30:08;11.27;;;4.28;;
58553;SDS011;48119;53.218;6.576;2024-01-27T08:32:35;15.60;;;4.38;;
58553;SDS011;48119;53.218;6.576;2024-01-27T08:35:01;15.07;;;3.92;;
58553;SDS011;48119;53.218;6.576;2024-01-27T08:37:27;15.95;;;3.83;;
58553;SDS011;48119;53.218;6.576;2024-01-27T08:39:53;15.60;;;5.03;;
58553;SDS011;48119;53.218;6.576;2024-01-27T08:42:19;19.17;;;5.35;;
58553;SDS011;48119;53.218;6.576;2024-01-27T08:44:44;12.93;;;3.72;;
58553;SDS011;48119;53.218;6.576;2024-01-27T08:47:10;14.85;;;4.38;;
58553;SDS011;48119;53.218;6.576;2024-01-27T08:49:36;12.23;;;3.85;;
58553;SDS011;48119;53.218;6.576;2024-01-27T08:52:01;12.57;;;4.53;;
58553;SDS011;48119;53.218;6.576;2024-01-27T08:54:27;20.63;;;4.88;;
58553;SDS011;48119;53.218;6.576;2024-01-27T08:56:53;19.92;;;4.65;;
58553;SDS011;48119;53.218;6.576;2024-01-27T08:59:19;11.75;;;4.70;;
58553;SDS011;48119;53.218;6.576;2024-01-27T09:01:44;14.98;;;3.92;;
58553;SDS011;48119;53.218;6.576;2024-01-27T09:04:10;11.52;;;4.55;;
58553;SDS011;48119;53.218;6.576;2024-01-27T09:06:36;17.95;;;4.55;;
58553;SDS011;48119;53.218;6.576;2024-01-27T09:09:02;11.95;;;3.72;;
58553;SDS011;48119;53.218;6.576;2024-01-27T09:11:28;14.45;;;5.18;;
58553;SDS011;48119;53.218;6.576;2024-01-27T09:13:55;18.83;;;6.00;;
58553;SDS011;48119;53.218;6.576;2024-01-27T09:16:21;26.00;;;4.70;;
58553;SDS011;48119;53.218;6.576;2024-01-27T09:18:47;17.20;;;4.28;;
58553;SDS011;48119;53.218;6.576;2024-01-27T09:21:15;18.00;;;5.82;;
58553;SDS011;48119;53.218;6.576;2024-01-27T09:23:45;16.15;;;5.00;;
58553;SDS011;48119;53.218;6.576;2024-01-27T09:26:12;17.70;;;5.25;;
58553;SDS011;48119;53.218;6.576;2024-01-27T09:28:39;19.35;;;4.80;;
58553;SDS011;48119;53.218;6.576;2024-01-27T09:31:11;16.65;;;4.55;;
58553;SDS011;48119;53.218;6.576;2024-01-27T09:33:38;16.70;;;4.18;;
58553;SDS011;48119;53.218;6.576;2024-01-27T09:36:03;15.73;;;5.10;;
58553;SDS011;48119;53.218;6.576;2024-01-27T09:38:29;11.98;;;4.28;;
58553;SDS011;48119;53.218;6.576;2024-01-27T09:40:55;18.02;;;5.13;;
58553;SDS011;48119;53.218;6.576;2024-01-27T09:43:21;13.50;;;4.80;;
58553;SDS011;48119;53.218;6.576;2024-01-27T09:45:50;25.25;;;6.10;;
58553;SDS011;48119;53.218;6.576;2024-01-27T09:48:16;18.48;;;5.15;;
58553;SDS011;48119;53.218;6.576;2024-01-27T09:50:45;21.20;;;5.03;;
58553;SDS011;48119;53.218;6.576;2024-01-27T09:53:14;16.42;;;4.95;;
58553;SDS011;48119;53.218;6.576;2024-01-27T09:55:40;14.68;;;4.78;;
58553;SDS011;48119;53.218;6.576;2024-01-27T09:58:06;26.45;;;6.10;;
58553;SDS011;48119;53.218;6.576;2024-01-27T10:00:34;18.80;;;5.40;;
58553;SDS011;48119;53.218;6.576;2024-01-27T10:03:01;12.77;;;4.28;;
58553;SDS011;48119;53.218;6.576;2024-01-27T10:05:30;12.77;;;4.90;;
58553;SDS011;48119;53.218;6.576;2024-01-27T10:07:57;21.25;;;4.88;;
58553;SDS011;48119;53.218;6.576;2024-01-27T10:10:23;16.70;;;5.28;;
58553;SDS011;48119;53.218;6.576;2024-01-27T10:12:49;16.70;;;5.88;;
58553;SDS011;48119;53.218;6.576;2024-01-27T10:15:23;16.23;;;4.68;;
58553;SDS011;48119;53.218;6.576;2024-01-27T10:17:49;13.23;;;5.20;;
58553;SDS011;48119;53.218;6.576;2024-01-27T10:20:15;17.95;;;5.45;;
58553;SDS011;48119;53.218;6.576;2024-01-27T10:22:43;15.15;;;5.03;;
58553;SDS011;48119;53.218;6.576;2024-01-27T10:25:10;20.85;;;5.28;;
58553;SDS011;48119;53.218;6.576;2024-01-27T10:27:37;19.73;;;5.22;;
58553;SDS011;48119;53.218;6.576;2024-01-27T10:30:03;17.17;;;4.95;;
58553;SDS011;48119;53.218;6.576;2024-01-27T10:32:32;15.02;;;5.55;;
58553;SDS011;48119;53.218;6.576;2024-01-27T10:35:04;15.35;;;4.80;;
58553;SDS011;48119;53.218;6.576;2024-01-27T10:37:33;15.48;;;5.05;;
58553;SDS011;48119;53.218;6.576;2024-01-27T10:40:03;12.07;;;5.53;;
58553;SDS011;48119;53.218;6.576;2024-01-27T10:42:32;13.70;;;4.88;;
58553;SDS011;48119;53.218;6.576;2024-01-27T10:44:59;16.67;;;5.30;;
58553;SDS011;48119;53.218;6.576;2024-01-27T10:47:29;13.57;;;5.30;;
58553;SDS011;48119;53.218;6.576;2024-01-27T10:49:56;14.13;;;4.28;;
58553;SDS011;48119;53.218;6.576;2024-01-27T10:52:30;12.75;;;4.82;;
58553;SDS011;48119;53.218;6.576;2024-01-27T10:55:00;13.40;;;4.55;;
58553;SDS011;48119;53.218;6.576;2024-01-27T10:57:31;16.10;;;4.88;;
58553;SDS011;48119;53.218;6.576;2024-01-27T10:59:58;17.65;;;5.47;;
58553;SDS011;48119;53.218;6.576;2024-01-27T11:02:27;17.35;;;4.88;;
58553;SDS011;48119;53.218;6.576;2024-01-27T11:04:57;15.68;;;5.75;;
58553;SDS011;48119;53.218;6.576;2024-01-27T11:07:25;18.85;;;5.53;;
58553;SDS011;48119;53.218;6.576;2024-01-27T11:09:52;18.15;;;5.95;;
58553;SDS011;48119;53.218;6.576;2024-01-27T11:12:18;16.77;;;5.75;;
58553;SDS011;48119;53.218;6.576;2024-01-27T11:14:47;19.58;;;5.40;;
58553;SDS011;48119;53.218;6.576;2024-01-27T11:17:14;17.90;;;5.60;;
58553;SDS011;48119;53.218;6.576;2024-01-27T11:19:40;9.57;;;4.38;;
58553;SDS011;48119;53.218;6.576;2024-01-27T11:22:06;14.80;;;4.30;;
58553;SDS011;48119;53.218;6.576;2024-01-27T11:24:32;17.73;;;5.72;;
58553;SDS011;48119;53.218;6.576;2024-01-27T11:27:01;14.07;;;5.03;;
58553;SDS011;48119;53.218;6.576;2024-01-27T11:29:28;17.60;;;4.90;;
58553;SDS011;48119;53.218;6.576;2024-01-27T11:31:57;13.55;;;4.47;;
58553;SDS011;48119;53.218;6.576;2024-01-27T11:34:25;12.80;;;5.10;;
58553;SDS011;48119;53.218;6.576;2024-01-27T11:36:50;19.52;;;5.47;;
58553;SDS011;48119;53.218;6.576;2024-01-27T11:39:26;15.00;;;4.63;;
58553;SDS011;48119;53.218;6.576;2024-01-27T11:41:53;18.67;;;5.53;;
58553;SDS011;48119;53.218;6.576;2024-01-27T11:44:29;20.05;;;5.88;;
58553;SDS011;48119;53.218;6.576;2024-01-27T11:46:54;17.17;;;5.75;;
58553;SDS011;48119;53.218;6.576;2024-01-27T11:49:20;16.67;;;5.70;;
58553;SDS011;48119;53.218;6.576;2024-01-27T11:51:47;19.55;;;5.00;;
58553;SDS011;48119;53.218;6.576;2024-01-27T11:54:13;16.02;;;4.82;;
58553;SDS011;48119;53.218;6.576;2024-01-27T11:56:38;22.73;;;8.50;;
58553;SDS011;48119;53.218;6.576;2024-01-27T11:59:04;14.93;;;5.10;;
58553;SDS011;48119;53.218;6.576;2024-01-27T12:01:30;15.48;;;5.10;;
58553;SDS011;48119;53.218;6.576;2024-01-27T12:03:56;12.95;;;4.85;;
58553;SDS011;48119;53.218;6.576;2024-01-27T12:06:22;15.35;;;4.53;;
58553;SDS011;48119;53.218;6.576;2024-01-27T12:08:48;11.82;;;3.67;;
58553;SDS011;48119;53.218;6.576;2024-01-27T12:11:14;19.50;;;4.03;;
58553;SDS011;48119;53.218;6.576;2024-01-27T12:13:40;16.67;;;5.40;;
58553;SDS011;48119;53.218;6.576;2024-01-27T12:16:07;16.45;;;4.63;;
58553;SDS011;48119;53.218;6.576;2024-01-27T12:18:34;11.80;;;4.00;;
58553;SDS011;48119;53.218;6.576;2024-01-27T12:21:00;20.80;;;4.82;;
58553;SDS011;48119;53.218;6.576;2024-01-27T12:23:26;17.45;;;4.40;;
58553;SDS011;48119;53.218;6.576;2024-01-27T12:25:52;16.95;;;4.57;;
58553;SDS011;48119;53.218;6.576;2024-01-27T12:28:19;17.52;;;4.20;;
58553;SDS011;48119;53.218;6.576;2024-01-27T12:30:45;20.48;;;4.55;;
58553;SDS011;48119;53.218;6.576;2024-01-27T12:33:12;11.95;;;4.32;;
58553;SDS011;48119;53.218;6.576;2024-01-27T12:35:37;17.38;;;4.22;;
58553;SDS011;48119;53.218;6.576;2024-01-27T12:38:05;15.38;;;5.10;;
58553;SDS011;48119;53.218;6.576;2024-01-27T12:40:31;15.45;;;3.78;;
58553;SDS011;48119;53.218;6.576;2024-01-27T12:42:57;17.00;;;4.30;;
58553;SDS011;48119;53.218;6.576;2024-01-27T12:45:23;16.92;;;4.53;;
58553;SDS011;48119;53.218;6.576;2024-01-27T12:47:49;14.50;;;3.70;;
58553;SDS011;48119;53.218;6.576;2024-01-27T12:50:15;15.13;;;3.80;;
58553;SDS011;48119;53.218;6.576;2024-01-27T12:52:42;18.90;;;4.85;;
58553;SDS011;48119;53.218;6.576;2024-01-27T12:55:08;12.45;;;4.00;;
58553;SDS011;48119;53.218;6.576;2024-01-27T12:57:33;15.20;;;3.83;;
58553;SDS011;48119;53.218;6.576;2024-01-27T13:00:00;20.80;;;4.78;;
58553;SDS011;48119;53.218;6.576;2024-01-27T13:02:27;16.17;;;5.00;;
58553;SDS011;48119;53.218;6.576;2024-01-27T13:04:54;16.88;;;3.97;;
58553;SDS011;48119;53.218;6.576;2024-01-27T13:07:20;15.15;;;4.30;;
58553;SDS011;48119;53.218;6.576;2024-01-27T13:09:45;15.10;;;4.15;;
58553;SDS011;48119;53.218;6.576;2024-01-27T13:12:11;12.77;;;3.60;;
58553;SDS011;48119;53.218;6.576;2024-01-27T13:14:37;17.77;;;4.60;;
58553;SDS011;48119;53.218;6.576;2024-01-27T13:17:03;14.30;;;3.90;;
58553;SDS011;48119;53.218;6.576;2024-01-27T13:19:29;15.48;;;4.35;;
58553;SDS011;48119;53.218;6.576;2024-01-27T13:21:55;15.82;;;3.67;;
58553;SDS011;48119;53.218;6.576;2024-01-27T13:24:21;17.40;;;4.32;;
58553;SDS011;48119;53.218;6.576;2024-01-27T13:26:48;23.45;;;4.93;;
58553;SDS011;48119;53.218;6.576;2024-01-27T13:29:13;13.45;;;5.00;;
58553;SDS011;48119;53.218;6.576;2024-01-27T13:31:39;12.55;;;4.57;;
58553;SDS011;48119;53.218;6.576;2024-01-27T13:34:05;17.85;;;5.78;;
58553;SDS011;48119;53.218;6.576;2024-01-27T13:36:30;14.90;;;4.53;;
58553;SDS011;48119;53.218;6.576;2024-01-27T13:38:56;12.80;;;3.53;;
58553;SDS011;48119;53.218;6.576;2024-01-27T13:41:23;19.67;;;5.13;;
58553;SDS011;48119;53.218;6.576;2024-01-27T13:43:49;17.98;;;4.82;;
58553;SDS011;48119;53.218;6.576;2024-01-27T13:46:15;18.92;;;4.63;;
58553;SDS011;48119;53.218;6.576;2024-01-27T13:48:40;13.15;;;3.72;;
58553;SDS011;48119;53.218;6.576;2024-01-27T13:51:07;13.75;;;4.38;;
58553;SDS011;48119;53.218;6.576;2024-01-27T13:53:32;20.05;;;4.32;;
58553;SDS011;48119;53.218;6.576;2024-01-27T13:55:58;12.80;;;3.95;;
58553;SDS011;48119;53.218;6.576;2024-01-27T13:58:25;13.98;;;4.18;;
58553;SDS011;48119;53.218;6.576;2024-01-27T14:00:51;18.05;;;4.68;;
58553;SDS011;48119;53.218;6.576;2024-01-27T14:03:17;16.25;;;4.85;;
58553;SDS011;48119;53.218;6.576;2024-01-27T14:05:43;18.52;;;5.22;;
58553;SDS011;48119;53.218;6.576;2024-01-27T14:08:11;17.55;;;5.22;;
58553;SDS011;48119;53.218;6.576;2024-01-27T14:10:37;17.83;;;5.22;;
58553;SDS011;48119;53.218;6.576;2024-01-27T14:13:04;17.80;;;5.60;;
58553;SDS011;48119;53.218;6.576;2024-01-27T14:15:34;15.00;;;4.15;;
58553;SDS011;48119;53.218;6.576;2024-01-27T14:18:03;12.15;;;4.32;;
58553;SDS011;48119;53.218;6.576;2024-01-27T14:20:35;14.25;;;4.15;;
58553;SDS011;48119;53.218;6.576;2024-01-27T14:23:02;14.68;;;4.75;;
58553;SDS011;48119;53.218;6.576;2024-01-27T14:25:29;18.98;;;6.97;;
58553;SDS011;48119;53.218;6.576;2024-01-27T14:27:55;18.60;;;5.38;;
58553;SDS011;48119;53.218;6.576;2024-01-27T14:30:20;18.85;;;5.47;;